98OK weather

Candy Lake Estate Airport
Avant, Oklahoma, United States

Public forecast

Using degrees Fahrenheit for public forecast. Weather courtesy of forecast.io.

METAR (pilot weather report)

Closest report is Bartlesville Municipal Airport, 16.5 nm (30.6 km) N. Retrieved 2019/04/20 18:53 UTC (56 minutes ago):

KBVO 201853Z AUTO 21008KT 180V240 10SM CLR 24/05 A2997 RMK AO2 SLP143 T02440050

TAF (pilot weather forecast)

Closest forecast is Bartlesville Municipal Airport, 16.5 nm (30.6 km) N. Retrieved 2019/04/20 18:22 UTC (1 hour ago):

TAF KBVO 201720Z 2018/2118 19006KT P6SM SKC FM211200 18011G20KT P6SM BKN250